Time;durP1;ratioP1;P1;durP2;ratioP2;P2;SDS_P1;SDS_P2;PMS_P1;PMS_P2;Temp;Humidity;BMP_temperature;BMP_pressure;BME280_temperature;BME280_humidity;BME280_pressure;Samples;Min_cycle;Max_cycle;Signal;HPM_P1;HPM_P2
2022/09/28 00:01:24;;;;;;;1.92;1.42;;;;;;;6.78;87.75;96759.44;4186497;28;20106;-69
2022/09/28 00:03:26;;;;;;;1.33;1.10;;;;;;;6.73;88.01;96755.94;4186561;28;20041;-69
2022/09/28 00:05:27;;;;;;;2.08;1.20;;;;;;;6.75;87.69;96761.03;4186659;28;20036;-69
2022/09/28 00:07:28;;;;;;;1.52;1.30;;;;;;;6.73;87.84;96755.13;4187172;28;20381;-69
2022/09/28 00:09:28;;;;;;;1.20;1.10;;;;;;;6.78;87.90;96753.94;4186059;28;20048;-69
2022/09/28 00:11:29;;;;;;;1.42;1.20;;;;;;;6.79;87.59;96750.81;4186916;28;20071;-69
2022/09/28 00:13:30;;;;;;;1.90;1.17;;;;;;;6.80;88.00;96751.59;4186026;28;20052;-69
2022/09/28 00:15:30;;;;;;;1.35;1.10;;;;;;;6.82;88.01;96744.53;4186431;28;20059;-69
2022/09/28 00:17:32;;;;;;;1.20;1.08;;;;;;;6.90;87.32;96734.31;4186759;28;20751;-69
2022/09/28 00:19:33;;;;;;;1.67;1.20;;;;;;;6.89;87.33;96739.00;4185867;28;20036;-69
2022/09/28 00:21:35;;;;;;;1.77;1.20;;;;;;;6.85;87.22;96737.44;4187040;28;20155;-69
2022/09/28 00:25:55;;;;;;;3.03;1.23;;;;;;;6.80;87.85;96718.63;4186441;28;20056;-69
2022/09/28 00:27:56;;;;;;;1.65;1.10;;;;;;;6.78;87.83;96710.75;4186121;28;20396;-69
2022/09/28 00:29:57;;;;;;;2.85;1.20;;;;;;;6.73;87.60;96698.22;4185378;28;20072;-69
2022/09/28 00:32:02;;;;;;;2.70;1.20;;;;;;;6.70;87.97;96700.94;4186744;28;20044;-69
2022/09/28 00:34:04;;;;;;;3.33;0.90;;;;;;;6.70;88.41;96704.50;4185954;28;20537;-69
2022/09/28 00:36:04;;;;;;;1.55;1.10;;;;;;;6.66;87.72;96689.97;4186567;28;20074;-69
2022/09/28 00:38:04;;;;;;;1.35;1.23;;;;;;;6.63;87.62;96692.75;4186262;28;20416;-69
2022/09/28 00:40:05;;;;;;;2.33;1.40;;;;;;;6.53;87.43;96699.78;4185160;28;20036;-69
2022/09/28 00:42:15;;;;;;;1.10;1.00;;;;;;;6.44;88.28;96699.41;4185948;28;20020;-69
2022/09/28 00:44:47;;;;;;;1.20;1.10;;;;;;;6.39;88.55;96699.81;4190904;28;20024;-69
2022/09/28 00:46:49;;;;;;;1.30;1.10;;;;;;;6.37;89.40;96694.72;4186077;28;20048;-69
2022/09/28 00:49:01;;;;;;;1.48;1.15;;;;;;;6.37;89.53;96680.19;4185381;28;20045;-69
2022/09/28 00:51:07;;;;;;;2.45;1.00;;;;;;;6.34;88.33;96689.22;4185826;28;20135;-69
2022/09/28 00:53:20;;;;;;;1.50;1.10;;;;;;;6.29;89.00;96684.13;4185951;28;20557;-69
2022/09/28 00:55:37;;;;;;;1.40;1.05;;;;;;;6.27;88.81;96676.28;4186311;28;20337;-69
2022/09/28 00:57:41;;;;;;;1.60;1.20;;;;;;;6.34;89.62;96675.50;4186456;28;20072;-69
2022/09/28 00:59:41;;;;;;;1.77;1.38;;;;;;;6.39;89.07;96666.88;4185538;28;20044;-69
2022/09/28 01:01:42;;;;;;;4.00;1.27;;;;;;;6.39;89.12;96666.88;4186453;28;20738;-69
2022/09/28 01:03:44;;;;;;;3.78;1.20;;;;;;;6.41;88.82;96664.50;4186210;28;20048;-69
2022/09/28 01:05:47;;;;;;;1.65;1.15;;;;;;;6.45;89.25;96652.34;4184920;28;20055;-69
2022/09/28 01:07:47;;;;;;;1.48;1.23;;;;;;;6.54;89.57;96649.19;4185688;28;20140;-69
2022/09/28 01:09:49;;;;;;;2.25;1.23;;;;;;;6.57;89.00;96653.88;4185276;28;20426;-69
2022/09/28 01:11:50;;;;;;;1.73;1.35;;;;;;;6.61;89.17;96654.63;4186084;28;20641;-69
2022/09/28 01:13:55;;;;;;;1.92;1.35;;;;;;;6.64;89.24;96644.84;4186164;28;20481;-69
2022/09/28 01:16:03;;;;;;;1.55;1.40;;;;;;;6.64;88.13;96642.88;4185868;28;20167;-69
2022/09/28 01:18:16;;;;;;;3.28;1.70;;;;;;;6.63;88.19;96635.81;4185548;28;20048;-69
2022/09/28 01:20:32;;;;;;;1.52;1.42;;;;;;;6.59;88.22;96628.75;4185216;28;20029;-69
2022/09/28 01:22:33;;;;;;;2.72;1.70;;;;;;;6.60;88.50;96633.84;4186201;28;20499;-69
2022/09/28 01:24:45;;;;;;;2.30;1.55;;;;;;;6.56;88.13;96621.31;4185408;28;20298;-69
2022/09/28 01:26:53;;;;;;;1.77;1.60;;;;;;;6.57;88.60;96628.38;4186273;28;20052;-69
2022/09/28 01:29:04;;;;;;;2.45;1.75;;;;;;;6.60;88.56;96625.59;4185897;28;20528;-69
2022/09/28 01:31:09;;;;;;;2.28;1.52;;;;;;;6.61;88.53;96618.13;4185483;28;20472;-69
2022/09/28 01:33:19;;;;;;;2.33;1.55;;;;;;;6.61;88.55;96607.91;4185738;28;20106;-69
2022/09/28 01:35:30;;;;;;;2.53;1.80;;;;;;;6.67;88.42;96614.59;4185825;28;20371;-69
2022/09/28 01:38:09;;;;;;;1.52;1.42;;;;;;;6.68;87.98;96612.63;4185733;28;20095;-69
2022/09/28 01:40:10;;;;;;;2.42;1.90;;;;;;;6.65;87.93;96605.97;4184966;28;20219;-69
2022/09/28 01:42:19;;;;;;;2.47;1.73;;;;;;;6.64;88.12;96598.13;4185805;28;20055;-69
2022/09/28 01:44:23;;;;;;;2.92;2.08;;;;;;;6.59;88.07;96596.56;4185929;28;20029;-69
2022/09/28 01:46:33;;;;;;;2.17;1.67;;;;;;;6.53;88.17;96580.88;4185714;28;20049;-69
2022/09/28 01:48:42;;;;;;;4.15;2.00;;;;;;;6.52;88.50;96587.53;4185310;28;20298;-69
2022/09/28 01:50:46;;;;;;;2.45;1.83;;;;;;;6.51;88.64;96580.50;4185658;28;20094;-69
2022/09/28 01:52:53;;;;;;;3.40;2.05;;;;;;;6.44;88.96;96579.31;4185806;28;20056;-69
2022/09/28 01:55:01;;;;;;;3.08;2.05;;;;;;;6.48;88.76;96582.06;4185428;28;20071;-69
2022/09/28 01:57:13;;;;;;;4.82;2.50;;;;;;;6.43;88.85;96593.47;4186071;28;20455;-69
2022/09/28 01:59:19;;;;;;;3.33;2.28;;;;;;;6.41;89.58;96580.13;4185218;28;20074;-69
2022/09/28 02:01:40;;;;;;;5.45;2.33;;;;;;;6.39;89.34;96587.97;4185971;28;20045;-69
2022/09/28 02:03:48;;;;;;;3.22;2.40;;;;;;;6.39;90.01;96590.72;4185820;28;20049;-69
2022/09/28 02:05:58;;;;;;;3.88;2.67;;;;;;;6.40;90.03;96586.81;4185422;28;20032;-69
2022/09/28 02:08:25;;;;;;;4.13;2.58;;;;;;;6.50;89.97;96582.44;4185129;28;20480;-69
2022/09/28 02:10:34;;;;;;;3.28;2.50;;;;;;;6.54;89.54;96577.75;4184711;28;20095;-69
2022/09/28 02:12:45;;;;;;;3.92;2.45;;;;;;;6.57;89.15;96573.41;4186243;28;20067;-69
2022/09/28 02:14:49;;;;;;;5.22;3.10;;;;;;;6.72;89.82;96577.69;4185393;28;20516;-69
2022/09/28 02:16:53;;;;;;;3.25;2.85;;;;;;;6.75;89.25;96579.63;4185351;28;20055;-69
2022/09/28 02:18:53;;;;;;;2.70;2.30;;;;;;;6.82;89.32;96578.81;4186582;28;20044;-69
2022/09/28 02:21:04;;;;;;;4.78;2.55;;;;;;;6.84;89.04;96579.19;4188442;28;20055;-69
2022/09/28 02:23:07;;;;;;;4.15;2.65;;;;;;;6.81;89.01;96563.50;4188649;28;20047;-69
2022/09/28 02:25:19;;;;;;;4.03;2.70;;;;;;;6.82;88.59;96567.81;4188330;28;20048;-69
2022/09/28 02:27:41;;;;;;;3.60;3.00;;;;;;;6.83;88.95;96564.66;4188291;28;20052;-69
2022/09/28 02:29:42;;;;;;;4.32;2.80;;;;;;;6.86;89.07;96549.31;4187555;28;20071;-69
2022/09/28 02:31:42;;;;;;;4.95;2.60;;;;;;;6.87;88.48;96540.72;4188529;28;20032;-69
2022/09/28 02:33:45;;;;;;;3.53;2.80;;;;;;;6.95;89.54;96546.91;4188588;28;20052;-69
2022/09/28 02:35:46;;;;;;;4.75;3.20;;;;;;;6.93;89.44;96554.78;4188344;28;20048;-69
2022/09/28 02:37:47;;;;;;;6.22;3.50;;;;;;;6.93;89.85;96543.78;4187400;28;20067;-69
2022/09/28 02:39:47;;;;;;;4.18;3.22;;;;;;;7.01;89.63;96550.81;4187544;28;20142;-69
2022/09/28 02:42:00;;;;;;;4.55;3.40;;;;;;;7.07;89.14;96551.19;4188720;28;20045;-69
2022/09/28 02:44:19;;;;;;;;;;;;;;;7.07;89.25;96545.69;4188396;28;20051;-69
2022/09/28 02:46:38;;;;;;;6.45;2.75;;;;;;;7.05;89.22;96543.34;4187746;28;19963;-69
2022/09/28 02:49:10;;;;;;;3.03;2.70;;;;;;;7.11;90.04;96538.19;4186800;28;20492;-69
2022/09/28 02:51:16;;;;;;;5.20;3.20;;;;;;;7.08;89.49;96536.25;4187900;28;20053;-69
2022/09/28 02:53:51;;;;;;;4.88;3.28;;;;;;;7.07;89.43;96542.94;4187773;28;20486;-69
2022/09/28 02:56:16;;;;;;;3.35;2.97;;;;;;;7.04;89.81;96541.78;4174861;28;20055;-69
2022/09/28 02:58:20;;;;;;;3.75;3.30;;;;;;;7.10;90.15;96539.38;4187697;28;20447;-69
2022/09/28 03:00:21;;;;;;;4.78;2.55;;;;;;;7.14;89.15;96532.69;4188113;28;20036;-69
2022/09/28 03:02:31;;;;;;;3.60;2.42;;;;;;;7.17;88.66;96531.88;4187690;28;20260;-69
2022/09/28 03:05:03;;;;;;;4.20;2.80;;;;;;;7.21;88.57;96529.91;4187188;28;20063;-69
2022/09/28 03:07:17;;;;;;;2.40;2.00;;;;;;;7.22;89.12;96523.22;4202267;28;20425;-69
2022/09/28 03:09:31;;;;;;;2.25;2.00;;;;;;;7.16;89.37;96513.03;4186538;28;20153;-69
2022/09/28 03:12:00;;;;;;;3.58;2.33;;;;;;;7.18;88.80;96508.69;4187399;28;20340;-69
2022/09/28 03:14:01;;;;;;;2.80;2.30;;;;;;;7.15;89.23;96519.72;4184734;28;20326;-69
2022/09/28 03:16:12;;;;;;;3.42;2.40;;;;;;;7.12;89.74;96521.31;4187144;28;20056;-69
2022/09/28 03:18:13;;;;;;;2.95;2.40;;;;;;;7.13;89.54;96522.09;4187670;28;20029;-69
2022/09/28 03:20:13;;;;;;;3.75;2.53;;;;;;;7.12;89.51;96524.06;4187265;28;20511;-69
2022/09/28 03:22:14;;;;;;;4.72;2.75;;;;;;;7.13;89.48;96522.88;4186991;28;20107;-69
2022/09/28 03:24:14;;;;;;;3.95;2.40;;;;;;;7.13;89.69;96516.59;4187423;28;20067;-70
2022/09/28 03:26:15;;;;;;;2.90;2.30;;;;;;;7.07;90.24;96513.47;4187713;28;20474;-70
2022/09/28 03:28:16;;;;;;;2.67;2.45;;;;;;;7.10;90.97;96514.63;4187685;28;20360;-70
2022/09/28 03:30:16;;;;;;;3.13;2.60;;;;;;;7.07;91.48;96513.47;4185930;28;20024;-70
2022/09/28 03:32:16;;;;;;;5.00;2.83;;;;;;;7.04;92.06;96509.56;4187418;28;20445;-70
2022/09/28 03:34:17;;;;;;;3.20;2.70;;;;;;;7.01;93.00;96501.34;4187898;28;20028;-70
2022/09/28 03:36:17;;;;;;;3.05;2.47;;;;;;;6.94;93.72;96493.13;4186664;28;20023;-70
2022/09/28 03:38:18;;;;;;;3.55;2.72;;;;;;;6.90;94.01;96493.16;4187253;28;20464;-70
2022/09/28 03:40:18;;;;;;;3.42;2.78;;;;;;;6.90;94.16;96495.91;4187400;28;20071;-70
2022/09/28 03:42:19;;;;;;;8.98;2.97;;;;;;;6.89;94.23;96479.81;4187214;28;20457;-70
2022/09/28 03:44:19;;;;;;;3.85;2.90;;;;;;;6.86;94.93;96481.38;4187436;28;20468;-70
2022/09/28 03:46:20;;;;;;;4.38;3.08;;;;;;;6.81;95.74;96470.84;4186781;28;20035;-70
2022/09/28 03:48:25;;;;;;;4.60;2.97;;;;;;;6.74;95.73;96462.63;4186779;28;20149;-70
2022/09/28 03:50:26;;;;;;;5.07;2.78;;;;;;;6.73;96.56;96469.31;4186792;28;20218;-70
2022/09/28 03:52:26;;;;;;;4.03;2.78;;;;;;;6.70;96.60;96473.66;4186339;28;20565;-70
2022/09/28 03:54:26;;;;;;;3.70;2.70;;;;;;;6.71;96.28;96477.97;4186862;28;20033;-70
2022/09/28 03:56:26;;;;;;;4.13;2.58;;;;;;;6.74;96.25;96468.13;4187027;28;20044;-70
2022/09/28 03:58:27;;;;;;;5.35;2.95;;;;;;;6.75;95.79;96464.19;4186310;28;20068;-70
2022/09/28 04:00:28;;;;;;;4.15;2.20;;;;;;;6.79;95.80;96459.47;4186074;28;20044;-70
2022/09/28 04:02:29;;;;;;;2.97;2.30;;;;;;;6.81;96.45;96461.81;4187896;28;20052;-70
2022/09/28 04:04:29;;;;;;;3.35;2.88;;;;;;;6.84;96.17;96464.53;4187205;28;20076;-70
2022/09/28 04:06:30;;;;;;;2.92;2.10;;;;;;;6.82;95.61;96453.16;4186585;28;20053;-70
2022/09/28 04:08:30;;;;;;;5.32;2.53;;;;;;;6.81;95.09;96450.81;4186591;28;20048;-70
2022/09/28 04:10:30;;;;;;;7.75;3.35;;;;;;;6.82;95.79;96447.66;4186129;28;20076;-69
2022/09/28 04:12:31;;;;;;;4.47;2.35;;;;;;;6.79;96.18;96451.22;4187182;28;20332;-70
2022/09/28 04:14:31;;;;;;;5.05;2.30;;;;;;;6.77;96.08;96445.31;4173577;28;20041;-70
2022/09/28 04:16:31;;;;;;;3.42;2.13;;;;;;;6.78;95.75;96444.13;4185941;28;20246;-70
2022/09/28 04:18:32;;;;;;;2.10;1.90;;;;;;;6.77;96.17;96439.81;4185838;28;20102;-70
2022/09/28 04:20:32;;;;;;;3.42;2.08;;;;;;;6.82;96.46;96438.63;4186250;28;20463;-70
2022/09/28 04:22:33;;;;;;;3.15;2.47;;;;;;;6.81;96.06;96431.56;4186640;28;20374;-70
2022/09/28 04:24:33;;;;;;;2.20;1.83;;;;;;;6.80;95.77;96427.25;4186476;28;20090;-70
2022/09/28 04:26:34;;;;;;;1.98;1.80;;;;;;;6.79;96.57;96429.22;4186860;28;20029;-70
2022/09/28 04:30:53;;;;;;;2.42;2.00;;;;;;;6.67;98.18;96426.94;4185921;28;20327;-70
2022/09/28 04:32:53;;;;;;;3.00;2.03;;;;;;;6.61;98.67;96426.56;4186292;28;20044;-70
2022/09/28 04:34:54;;;;;;;4.50;2.22;;;;;;;6.58;98.42;96421.09;4186375;28;20347;-70
2022/09/28 04:36:55;;;;;;;2.22;1.92;;;;;;;6.56;99.00;96418.78;4185431;28;20097;-70
2022/09/28 04:38:55;;;;;;;3.60;2.00;;;;;;;6.57;98.91;96425.81;4185071;28;20119;-70
2022/09/28 04:40:55;;;;;;;3.00;1.90;;;;;;;6.57;98.30;96420.31;4186164;28;20051;-70
2022/09/28 04:42:56;;;;;;;3.33;1.83;;;;;;;6.61;98.27;96423.81;4186093;28;20488;-70
2022/09/28 04:44:57;;;;;;;3.75;2.22;;;;;;;6.65;98.05;96432.84;4185722;28;20052;-70
2022/09/28 04:46:57;;;;;;;3.13;1.83;;;;;;;6.66;97.71;96422.63;4185978;28;20512;-70
2022/09/28 04:48:58;;;;;;;5.70;2.03;;;;;;;6.69;97.21;96421.81;4185343;28;20088;-70
2022/09/28 04:50:59;;;;;;;2.17;1.35;;;;;;;6.70;96.93;96426.13;4185926;28;20136;-70
2022/09/28 04:53:00;;;;;;;1.80;1.35;;;;;;;6.74;95.94;96427.69;4186332;28;20131;-70
2022/09/28 04:55:01;;;;;;;1.83;1.40;;;;;;;6.73;96.24;96417.88;4186137;28;20463;-70
2022/09/28 04:57:02;;;;;;;3.15;1.23;;;;;;;6.75;96.20;96421.00;4186324;28;20048;-70
2022/09/28 04:59:03;;;;;;;2.97;1.40;;;;;;;6.76;95.96;96419.03;4186033;28;20123;-70
2022/09/28 05:01:09;;;;;;;3.17;1.02;;;;;;;6.78;95.90;96433.13;4185487;28;20139;-70
2022/09/28 05:03:09;;;;;;;1.10;1.00;;;;;;;6.78;95.27;96421.38;4185663;28;20102;-70
2022/09/28 05:05:09;;;;;;;2.08;1.10;;;;;;;6.80;94.92;96419.81;4185378;28;20056;-71
2022/09/28 05:07:10;;;;;;;1.48;0.80;;;;;;;6.79;94.89;96422.97;4187504;28;20059;-71
2022/09/28 05:09:10;;;;;;;1.20;1.10;;;;;;;6.74;95.51;96422.19;4185892;28;20049;-70
2022/09/28 05:11:12;;;;;;;5.10;1.20;;;;;;;6.74;94.51;96422.19;4186222;28;20048;-70
2022/09/28 05:13:13;;;;;;;1.33;0.75;;;;;;;6.75;94.91;96425.72;4185931;28;20063;-71
2022/09/28 05:15:13;;;;;;;0.95;0.85;;;;;;;6.74;95.01;96421.41;4186065;28;20537;-70
2022/09/28 05:17:14;;;;;;;3.03;0.88;;;;;;;6.69;95.25;96419.06;4185720;28;20076;-70
2022/09/28 05:19:14;;;;;;;0.88;0.80;;;;;;;6.70;95.08;96417.88;4185289;28;20071;-70
2022/09/28 05:21:14;;;;;;;2.08;0.80;;;;;;;6.70;94.88;96417.88;4184850;28;20385;-71
2022/09/28 05:23:16;;;;;;;2.70;0.88;;;;;;;6.70;94.92;96409.63;4186060;28;20074;-71
2022/09/28 05:25:16;;;;;;;1.20;0.75;;;;;;;6.73;95.06;96415.13;4185960;28;20055;-71
2022/09/28 05:27:17;;;;;;;1.67;0.70;;;;;;;6.72;95.34;96407.28;4185681;28;20447;-71
2022/09/28 05:29:17;;;;;;;5.05;1.20;;;;;;;6.70;95.92;96415.94;4185433;28;20140;-71
2022/09/28 05:31:17;;;;;;;3.88;1.00;;;;;;;6.63;96.60;96406.97;4185476;28;20338;-71
2022/09/28 05:33:18;;;;;;;3.63;0.90;;;;;;;6.62;96.40;96400.69;4185872;28;20345;-71
2022/09/28 05:35:18;;;;;;;1.27;0.85;;;;;;;6.62;96.34;96406.19;4186161;28;20048;-70
2022/09/28 05:37:19;;;;;;;2.70;0.70;;;;;;;6.59;96.64;96406.19;4185278;28;20074;-70
2022/09/28 05:39:19;;;;;;;1.00;0.90;;;;;;;6.57;97.07;96406.59;4185543;28;20086;-70
2022/09/28 05:41:19;;;;;;;1.42;0.70;;;;;;;6.52;97.93;96415.25;4184513;28;20055;-70
2022/09/28 05:43:20;;;;;;;1.90;0.70;;;;;;;6.43;98.66;96410.19;4185380;28;20468;-70
2022/09/28 05:45:20;;;;;;;0.98;0.80;;;;;;;6.37;99.47;96413.75;4185606;28;20060;-70
2022/09/28 05:47:21;;;;;;;1.08;0.57;;;;;;;6.31;99.65;96404.38;4185466;28;20355;-71
2022/09/28 05:49:21;;;;;;;3.97;0.80;;;;;;;6.33;99.82;96404.75;4184838;28;20083;-70
2022/09/28 05:51:23;;;;;;;3.40;0.95;;;;;;;6.34;100.00;96406.31;4185866;28;20076;-70
2022/09/28 05:53:24;;;;;;;12.98;1.40;;;;;;;6.39;99.43;96395.72;4187196;28;20430;-71
2022/09/28 05:55:24;;;;;;;0.90;0.68;;;;;;;6.46;98.70;96405.88;4188817;28;20384;-71
2022/09/28 05:57:25;;;;;;;1.67;0.90;;;;;;;6.47;98.98;96394.47;4188759;28;20136;-71
2022/09/28 05:59:25;;;;;;;3.08;1.02;;;;;;;6.51;99.20;96386.22;4188595;28;20057;-71
2022/09/28 06:01:25;;;;;;;2.45;0.90;;;;;;;6.54;98.24;96396.41;4188111;28;20102;-71
2022/09/28 06:03:26;;;;;;;1.83;1.10;;;;;;;6.56;98.75;96393.25;4188330;28;20044;-70
2022/09/28 06:05:28;;;;;;;4.75;1.23;;;;;;;6.53;99.08;96391.28;4189032;28;20297;-70
2022/09/28 06:07:28;;;;;;;3.23;1.13;;;;;;;6.52;99.88;96387.78;4188980;28;20044;-70
2022/09/28 06:09:29;;;;;;;3.17;1.15;;;;;;;6.51;100.00;96391.69;4187893;28;21231;-71
2022/09/28 06:11:30;;;;;;;2.08;0.80;;;;;;;6.50;100.00;96383.88;4188450;28;20046;-71
2022/09/28 06:13:31;;;;;;;1.95;1.10;;;;;;;6.45;100.00;96382.31;4188949;28;20048;-71
2022/09/28 06:15:33;;;;;;;2.28;0.90;;;;;;;6.44;100.00;96392.53;4188156;28;20120;-71
2022/09/28 06:17:33;;;;;;;3.58;1.38;;;;;;;6.43;100.00;96388.22;4190092;28;20067;-70
2022/09/28 06:19:33;;;;;;;1.30;0.80;;;;;;;6.41;100.00;96385.09;4176128;28;20041;-70
2022/09/28 06:21:34;;;;;;;1.15;0.85;;;;;;;6.42;100.00;96386.66;4187466;28;20043;-71
2022/09/28 06:23:35;;;;;;;1.08;0.73;;;;;;;6.40;100.00;96382.75;4185466;28;20044;-71
2022/09/28 06:25:36;;;;;;;0.95;0.80;;;;;;;6.44;100.00;96392.53;4133164;28;20045;-71
2022/09/28 06:27:36;;;;;;;2.03;0.73;;;;;;;6.42;100.00;96377.63;4189138;28;20496;-71
2022/09/28 06:29:36;;;;;;;1.25;0.80;;;;;;;6.46;100.00;96387.44;4186447;28;20059;-71
2022/09/28 06:31:37;;;;;;;5.78;1.17;;;;;;;6.47;100.00;96386.25;4188159;28;20071;-71
2022/09/28 06:33:37;;;;;;;2.15;0.70;;;;;;;6.47;100.00;96386.25;4188093;28;20064;-71
2022/09/28 06:35:38;;;;;;;1.15;0.70;;;;;;;6.47;100.00;96378.00;4187920;28;20444;-71
2022/09/28 06:37:39;;;;;;;0.73;0.70;;;;;;;6.51;100.00;96379.94;4187868;28;20083;-71
2022/09/28 06:39:39;;;;;;;0.90;0.60;;;;;;;6.51;100.00;96390.94;4187697;28;20049;-71
2022/09/28 06:41:40;;;;;;;0.95;0.90;;;;;;;6.54;100.00;96392.84;4188359;28;20254;-71
2022/09/28 06:43:40;;;;;;;2.25;0.82;;;;;;;6.53;100.00;96391.28;4187936;28;20135;-71
2022/09/28 06:45:42;;;;;;;1.92;0.85;;;;;;;6.56;100.00;96387.75;4187542;28;20516;-71
2022/09/28 06:47:42;;;;;;;1.80;0.90;;;;;;;6.57;100.00;96390.09;4188497;28;20052;-71
2022/09/28 06:49:43;;;;;;;1.00;0.77;;;;;;;6.59;100.00;96393.22;4187644;28;20423;-71
2022/09/28 06:51:44;;;;;;;0.75;0.63;;;;;;;6.60;100.00;96397.53;4187942;28;20080;-71
2022/09/28 06:53:45;;;;;;;1.60;0.90;;;;;;;6.68;100.00;96401.81;4187957;28;20504;-71
2022/09/28 06:55:49;;;;;;;1.85;0.85;;;;;;;6.73;100.00;96397.84;4187720;28;20206;-71
2022/09/28 06:57:57;;;;;;;1.55;0.70;;;;;;;6.78;100.00;96393.88;4188494;28;20041;-71
2022/09/28 06:59:58;;;;;;;2.38;0.88;;;;;;;6.82;100.00;96383.66;4185941;28;20049;-70
2022/09/28 07:01:58;;;;;;;2.30;1.05;;;;;;;6.82;100.00;96394.66;4187812;28;20470;-71
2022/09/28 07:04:00;;;;;;;1.75;0.95;;;;;;;6.81;100.00;96395.84;4186340;28;20052;-71
2022/09/28 07:06:01;;;;;;;3.83;1.15;;;;;;;6.82;100.00;96403.69;4186835;28;20064;-71
2022/09/28 07:08:03;;;;;;;1.23;1.02;;;;;;;6.84;100.00;96395.03;4188384;28;20045;-71
2022/09/28 07:10:04;;;;;;;1.17;0.73;;;;;;;6.88;100.00;96398.53;4186361;28;20028;-71
2022/09/28 07:12:04;;;;;;;2.67;1.00;;;;;;;6.90;100.00;96396.94;4187685;28;20573;-72
2022/09/28 07:14:05;;;;;;;5.38;3.15;;;;;;;6.95;99.96;96399.28;4186861;28;20364;-71
2022/09/28 07:16:06;;;;;;;16.17;6.82;;;;;;;7.05;99.45;96408.63;4187345;28;20036;-71
2022/09/28 07:18:07;;;;;;;24.75;7.53;;;;;;;7.12;99.79;96411.31;4187475;28;20036;-71
2022/09/28 07:20:07;;;;;;;16.95;7.95;;;;;;;7.18;100.00;96412.44;4188207;28;20056;-71
2022/09/28 07:22:08;;;;;;;17.20;7.63;;;;;;;7.20;98.88;96414.75;4187143;28;20032;-71
2022/09/28 07:24:11;;;;;;;11.10;5.63;;;;;;;7.21;98.87;96419.88;4187080;28;20352;-71
2022/09/28 07:26:11;;;;;;;8.00;3.67;;;;;;;7.21;99.64;96422.63;4187444;28;20035;-71
2022/09/28 07:28:12;;;;;;;9.23;3.72;;;;;;;7.21;100.00;96421.84;4187640;28;20115;-71
2022/09/28 07:30:13;;;;;;;4.05;2.22;;;;;;;7.16;100.00;96430.53;4185713;28;20028;-71
2022/09/28 07:32:13;;;;;;;4.82;2.33;;;;;;;7.13;100.00;96423.09;4187168;28;20329;-71
2022/09/28 07:34:13;;;;;;;4.47;1.63;;;;;;;7.15;100.00;96428.97;4187873;28;20106;-71
2022/09/28 07:36:16;;;;;;;3.63;2.00;;;;;;;7.17;100.00;96434.84;4187055;28;20024;-71
2022/09/28 07:38:17;;;;;;;5.57;1.60;;;;;;;7.21;99.62;96433.63;4187204;28;20103;-71
2022/09/28 07:42:37;;;;;;;2.40;1.10;;;;;;;7.24;100.00;96435.56;4187018;28;20607;-70
2022/09/28 07:44:39;;;;;;;2.35;0.95;;;;;;;7.28;100.00;96436.34;4186795;28;20045;-71
2022/09/28 07:46:40;;;;;;;;;;;;;;;7.28;100.00;96439.09;4187668;28;20262;-71
2022/09/28 07:48:42;;;;;;;1.25;1.00;;;;;;;7.28;100.00;96446.53;4172539;28;20372;-71
2022/09/28 07:50:52;;;;;;;2.53;1.85;;;;;;;7.25;100.00;96439.88;4187243;28;20045;-71
2022/09/28 07:52:54;;;;;;;4.15;2.95;;;;;;;7.20;100.00;96437.56;4186893;28;20060;-70
2022/09/28 07:54:55;;;;;;;5.38;2.72;;;;;;;7.18;100.00;96442.69;4186467;28;20155;-71
2022/09/28 07:56:55;;;;;;;5.50;3.30;;;;;;;7.17;100.00;96441.13;4186828;28;20084;-71
2022/09/28 07:58:56;;;;;;;3.70;2.55;;;;;;;7.15;99.32;96446.25;4186011;28;20377;-71
2022/09/28 08:00:57;;;;;;;2.72;2.00;;;;;;;7.14;99.55;96460.41;4187023;28;20047;-70
2022/09/28 08:02:59;;;;;;;4.22;2.33;;;;;;;7.10;99.80;96454.13;4186295;28;20049;-71
2022/09/28 08:05:00;;;;;;;2.90;1.10;;;;;;;7.07;100.00;96458.47;4186385;28;20072;-70
2022/09/28 08:07:01;;;;;;;3.20;1.90;;;;;;;7.08;100.00;96459.25;4185414;28;20148;-70
2022/09/28 08:09:02;;;;;;;4.07;1.85;;;;;;;7.11;100.00;96461.19;4186224;28;20051;-70
2022/09/28 08:11:05;;;;;;;3.65;1.95;;;;;;;7.13;100.00;96465.13;4186828;28;20048;-70
2022/09/28 08:13:06;;;;;;;2.65;1.77;;;;;;;7.19;100.00;96468.22;4186252;28;20089;-70
2022/09/28 08:15:10;;;;;;;2.80;1.63;;;;;;;7.23;100.00;96468.97;4186442;28;20135;-70
2022/09/28 08:17:11;;;;;;;3.80;2.00;;;;;;;7.28;100.00;96474.03;4186414;28;20462;-70
2022/09/28 08:19:11;;;;;;;8.75;2.10;;;;;;;7.29;100.00;96475.63;4187281;28;20486;-70
2022/09/28 08:23:31;;;;;;;3.25;2.35;;;;;;;7.37;100.00;96477.13;4187021;28;20059;-70
2022/09/28 08:25:31;;;;;;;2.60;2.20;;;;;;;7.41;100.00;96493.59;4186388;28;20037;-71
2022/09/28 08:27:32;;;;;;;4.80;2.78;;;;;;;7.43;100.00;96499.47;4186672;28;20093;-71
2022/09/28 08:29:32;;;;;;;4.50;2.35;;;;;;;7.28;100.00;96499.59;4186952;28;20387;-71
2022/09/28 08:31:32;;;;;;;3.90;1.70;;;;;;;7.27;100.00;96492.50;4186807;28;20047;-71
2022/09/28 08:33:33;;;;;;;2.88;1.85;;;;;;;7.25;100.00;96505.09;4186382;28;20376;-71
2022/09/28 08:35:33;;;;;;;2.33;1.50;;;;;;;7.43;98.14;96507.72;4186762;28;20423;-72
2022/09/28 08:37:34;;;;;;;3.30;1.83;;;;;;;7.41;98.41;96512.84;4186764;28;20120;-71
2022/09/28 08:39:35;;;;;;;2.92;1.50;;;;;;;7.47;99.93;96511.25;4185761;28;20476;-71
2022/09/28 08:42:12;;;;;;;2.35;1.65;;;;;;;7.61;98.40;96511.09;4186041;28;20358;-70
2022/09/28 08:44:24;;;;;;;2.80;1.90;;;;;;;7.75;97.43;96511.00;4185493;28;20348;-71
2022/09/28 08:46:36;;;;;;;6.72;3.97;;;;;;;7.84;97.23;96516.03;4186661;28;20296;-71
2022/09/28 08:48:53;;;;;;;3.35;1.80;;;;;;;7.80;94.33;96516.06;4169385;28;20535;-71
2022/09/28 08:50:57;;;;;;;2.03;1.63;;;;;;;7.81;97.08;96522.34;4186047;28;20063;-70
2022/09/28 08:53:24;;;;;;;1.98;1.48;;;;;;;7.76;96.01;96517.28;4186398;28;20044;-71
2022/09/28 08:55:31;;;;;;;2.28;1.45;;;;;;;7.81;96.22;96534.16;4185455;28;20048;-71
2022/09/28 08:57:41;;;;;;;3.80;1.60;;;;;;;7.53;95.08;96534.38;4185961;28;20040;-71
2022/09/28 08:59:53;;;;;;;1.70;1.40;;;;;;;7.46;96.15;96539.94;4185431;28;20055;-71
2022/09/28 09:02:02;;;;;;;2.33;1.60;;;;;;;7.43;96.42;96535.22;4200253;28;20141;-71
2022/09/28 09:04:04;;;;;;;1.70;1.25;;;;;;;7.45;97.04;96536.41;4184787;28;20040;-72
2022/09/28 09:06:14;;;;;;;2.57;1.30;;;;;;;7.45;97.26;96543.88;4185886;28;20086;-72
2022/09/28 09:08:23;;;;;;;3.65;1.50;;;;;;;7.48;96.78;96554.06;4186207;28;20307;-72
2022/09/28 09:11:00;;;;;;;1.73;1.30;;;;;;;7.62;96.29;96555.94;4186322;28;20083;-72
2022/09/28 09:13:30;;;;;;;1.83;1.48;;;;;;;7.50;95.74;96554.44;4186502;28;20044;-72
2022/09/28 09:15:42;;;;;;;5.15;3.10;;;;;;;7.48;96.30;96554.06;4184725;28;20055;-71
2022/09/28 09:18:15;;;;;;;2.67;1.48;;;;;;;7.54;97.21;96552.47;4186894;28;20041;-72
2022/09/28 09:20:45;;;;;;;2.10;1.55;;;;;;;7.69;96.13;96567.66;4185662;28;20053;-72
2022/09/28 09:22:59;;;;;;;1.50;1.33;;;;;;;7.68;95.49;96566.09;4150305;28;20194;-72
2022/09/28 09:25:04;;;;;;;2.50;1.70;;;;;;;7.82;95.67;96571.50;4185628;28;20044;-72
2022/09/28 09:27:17;;;;;;;3.05;1.65;;;;;;;7.86;95.47;96564.00;4185998;28;20041;-72
2022/09/28 09:29:39;;;;;;;9.20;2.30;;;;;;;7.98;95.96;96573.72;4188964;28;20095;-72
2022/09/28 09:32:03;;;;;;;2.55;2.08;;;;;;;7.95;93.33;96579.28;4189503;28;20048;-72
2022/09/28 09:34:16;;;;;;;7.78;1.90;;;;;;;7.96;93.74;96586.34;4188933;28;20044;-72
2022/09/28 09:36:35;;;;;;;3.63;2.22;;;;;;;8.10;93.67;96581.47;4189590;28;21270;-72
2022/09/28 09:38:50;;;;;;;5.75;2.90;;;;;;;8.18;91.93;96571.16;4188689;28;20733;-72
2022/09/28 09:40:56;;;;;;;4.82;2.13;;;;;;;8.14;89.08;96582.25;4189653;28;20479;-72
2022/09/28 09:43:29;;;;;;;3.13;2.05;;;;;;;8.03;89.57;96578.81;4188978;28;20141;-72
2022/09/28 09:46:06;;;;;;;3.20;1.50;;;;;;;7.99;89.26;96585.53;4188163;28;20125;-72
2022/09/28 09:48:16;;;;;;;3.28;1.50;;;;;;;8.22;89.49;96588.47;4188334;28;20080;-72
2022/09/28 09:50:28;;;;;;;1.60;1.50;;;;;;;8.27;86.78;96589.97;4188977;28;20032;-72
2022/09/28 09:52:55;;;;;;;2.65;1.75;;;;;;;8.37;89.01;96589.16;4188509;28;20052;-72
2022/09/28 09:55:06;;;;;;;3.17;1.50;;;;;;;8.45;83.34;96593.38;4203797;28;20044;-72
2022/09/28 09:57:20;;;;;;;2.95;1.60;;;;;;;8.48;83.81;96600.06;4188707;28;20127;-72
2022/09/28 09:59:26;;;;;;;6.20;1.67;;;;;;;8.61;85.84;96593.63;4186483;28;20052;-72
2022/09/28 10:01:33;;;;;;;2.15;1.55;;;;;;;8.80;86.39;96596.94;4189061;28;20044;-72
2022/09/28 10:03:38;;;;;;;3.35;1.50;;;;;;;8.86;86.33;96598.84;4189030;28;20044;-72
2022/09/28 10:05:43;;;;;;;1.67;1.20;;;;;;;8.79;80.68;96598.91;4188936;28;20323;-72